Kissimmee Gateway Airport
KISM : now visible

Airfield :











YOU CAN JOIN US ON...

 
LOGIN :

Register | Disclaimer

   EN    FR    IT 

 









Legend :    VFR   Marginal VFR   IFR   Intensive IFR   Very Intensive IFR
Visi :
Ceiling :
>= 8 km
>= 3000ft
5 to 8 km
1000 to 3000 ft
1500m to 5 km
500 to 1000 ft
800 to 1500m
200 to 500 ft
< 800m
< 200 ft
Symbols :   Thunderstorms  Fog  Heavy snow  Heavy precipitations  Wind > 20 kt






- Airport Elevation : 82 ft


KISM - Kissimmee Gateway

CURRENT METAR :
  • 202356Z 27006KT 10SM CLR 26/18 A3002 RMK AO2 SLP165 6//// T02560183 10300 20256 53008 PNO $

EXPIRED METARs :
  • 202256Z 27008KT 10SM FEW040 28/19 A3001 RMK AO2 SLP161 T02780194 PNO $
  • 202156Z 28012KT 10SM FEW040 SCT048 28/21 A2999 RMK AO2 SLP155 T02830206 PNO $

TAF KISM
Valid from the 21 at 00:00 until the 22 at 00:00 UTC


202336Z 2100/2124 26010KT P6SM SCT050 SCT250
FM210300 30010KT P6SM VCSH SCT004 BKN010
TEMPO 2108/2112 BKN006
FM211200 36015KT P6SM VCSH BKN010
FM211700 36017G25KT P6SM BKN020



MET'MAP, your aeronautical weather chart ! - Copyright ORBIFLY December 2007 - Disclaimer

ORBIFLY MET'MAP TEAM :

Programming & Development : Alexandra Zaïnal
Concept & original design : Baudouin d'Aumeries
Assistance for programming : Marc-Olivier Méhu
Technical & hardware support : Manuel Goepfert

Contact : metmap@orbifly.com




SOURCES & CREDITS :

   NOAA       Earth
Advisory